DENVER INTL

KDEN (DEN)
Denver, Colorado
Towered

Vatsim Metar:
KDEN 291753Z 32008KT 10SM FEW080 SCT110 SCT220 30/16 A3027 RMK AO2 SLP157 T03000161 10300 20206 50000

No ATC Online

Traffic

Inbound:
Ident
Type
Name
ETA
Phase
SWA1307
B738
Sam KMIA
19:47 Z
Cruse
ACA1037
A320
Daniel Garcia CYVR
20:34 Z
Cruse

Outbound:
Ident
Type
Name
Destination
Phase
UAL710
B738
Kailen KPLU
KSAN
Boarding
JBU98
A21N
Maxine Grooms KSAV
KJFK
Climb

SIDs

STARS

Alternate Minimums

Hot Spots